Time;durP1;ratioP1;P1;durP2;ratioP2;P2;SDS_P1;SDS_P2;PMS_P1;PMS_P2;Temp;Humidity;BMP_temperature;BMP_pressure;BME280_temperature;BME280_humidity;BME280_pressure;Samples;Min_cycle;Max_cycle;Signal;HPM_P1;HPM_P2
2023/04/26 00:01:41;;;;;;;;;;;4.30;99.90;;;;;;5063456;28;19932;-69
2023/04/26 00:04:07;;;;;;;;;;;4.00;99.90;;;;;;5070288;28;19983;-69
2023/04/26 00:06:33;;;;;;;;;;;4.00;99.90;;;;;;5069707;28;20390;-69
2023/04/26 00:08:59;;;;;;;;;;;4.00;99.90;;;;;;5073136;28;19970;-70
2023/04/26 00:11:25;;;;;;;;;;;4.00;99.90;;;;;;5058808;28;19924;-69
2023/04/26 00:13:50;;;;;;;;;;;4.00;99.90;;;;;;5053619;28;19987;-69
2023/04/26 00:16:17;;;;;;;;;;;4.00;99.90;;;;;;5062103;28;19928;-68
2023/04/26 00:18:45;;;;;;;;;;;4.00;99.90;;;;;;5056549;28;19925;-69
2023/04/26 00:21:11;;;;;;;;;;;4.00;99.90;;;;;;5060448;28;20390;-70
2023/04/26 00:23:36;;;;;;;;;;;4.00;99.90;;;;;;5073097;28;19975;-69
2023/04/26 00:26:02;;;;;;;;;;;4.00;99.90;;;;;;5049610;28;19924;-69
2023/04/26 00:28:30;;;;;;;;;;;4.10;99.90;;;;;;5054103;28;20299;-70
2023/04/26 00:30:56;;;;;;;;;;;4.10;99.90;;;;;;5064899;28;19929;-70
2023/04/26 00:33:22;;;;;;;;;;;4.10;99.90;;;;;;5059568;28;19924;-71
2023/04/26 00:35:48;;;;;;;;;;;4.20;99.90;;;;;;5056290;28;19924;-69
2023/04/26 00:38:13;;;;;;;;;;;4.10;99.90;;;;;;5066982;28;20058;-69
2023/04/26 00:40:39;;;;;;;;;;;4.30;99.90;;;;;;5069460;28;19924;-69
2023/04/26 00:43:05;;;;;;;;;;;4.10;99.90;;;;;;5031655;28;20034;-70
2023/04/26 00:45:31;;;;;;;;;;;4.10;99.90;;;;;;5071167;28;19971;-70
2023/04/26 00:47:57;;;;;;;;;;;4.30;99.90;;;;;;5069270;28;19932;-69
2023/04/26 00:50:23;;;;;;;;;;;4.20;99.90;;;;;;5074195;28;20305;-70
2023/04/26 00:52:49;;;;;;;;;;;4.00;99.90;;;;;;5074405;28;19925;-70
2023/04/26 00:55:15;;;;;;;;;;;4.00;99.90;;;;;;5073089;28;19924;-69
2023/04/26 00:57:40;;;;;;;;;;;4.00;99.90;;;;;;5072600;28;20259;-69
2023/04/26 01:00:06;;;;;;;;;;;4.10;99.90;;;;;;5054797;28;19928;-69
2023/04/26 01:02:32;;;;;;;;;;;4.10;99.90;;;;;;5067750;28;19924;-70
2023/04/26 01:04:58;;;;;;;;;;;4.10;99.90;;;;;;5053888;28;19924;-70
2023/04/26 01:07:24;;;;;;;;;;;4.20;99.90;;;;;;5071378;28;20396;-69
2023/04/26 01:09:49;;;;;;;;;;;4.20;99.90;;;;;;5050954;28;19925;-69
2023/04/26 01:12:16;;;;;;;;;;;4.20;99.90;;;;;;5054810;28;19924;-70
2023/04/26 01:14:44;;;;;;;;;;;4.20;99.90;;;;;;5055655;28;19929;-69
2023/04/26 01:17:10;;;;;;;;;;;4.10;99.90;;;;;;5072785;28;19925;-69
2023/04/26 01:19:36;;;;;;;;;;;4.10;99.90;;;;;;5070983;28;20033;-74
2023/04/26 01:22:03;;;;;;;;;;;4.10;99.90;;;;;;5054125;28;19960;-70
2023/04/26 01:24:29;;;;;;;;;;;4.00;99.90;;;;;;5065599;28;20363;-70
2023/04/26 01:26:54;;;;;;;;;;;4.00;99.90;;;;;;5061125;28;19930;-69
2023/04/26 01:29:20;;;;;;;;;;;4.00;99.90;;;;;;5038017;28;19932;-69
2023/04/26 01:31:47;;;;;;;;;;;4.00;99.90;;;;;;5054012;28;19925;-69
2023/04/26 01:34:13;;;;;;;;;;;4.00;99.90;;;;;;5070684;28;19932;-69
2023/04/26 01:36:38;;;;;;;;;;;4.10;99.90;;;;;;5069220;28;19926;-69
2023/04/26 01:39:04;;;;;;;;;;;4.10;99.90;;;;;;5067197;28;19925;-68
2023/04/26 01:41:32;;;;;;;;;;;4.10;99.90;;;;;;5068722;28;19931;-70
2023/04/26 01:43:58;;;;;;;;;;;4.10;99.90;;;;;;5068006;28;19978;-69
2023/04/26 01:46:23;;;;;;;;;;;4.20;99.90;;;;;;5069711;28;19928;-69
2023/04/26 01:48:49;;;;;;;;;;;4.10;99.90;;;;;;5069528;28;19925;-69
2023/04/26 01:51:15;;;;;;;;;;;4.10;99.90;;;;;;5067832;28;19936;-69
2023/04/26 01:53:41;;;;;;;;;;;4.10;99.90;;;;;;5072342;28;20061;-70
2023/04/26 01:56:09;;;;;;;;;;;4.10;99.90;;;;;;5068277;28;19935;-70
2023/04/26 01:58:35;;;;;;;;;;;4.20;99.90;;;;;;5070121;28;19924;-68
2023/04/26 02:01:04;;;;;;;;;;;4.10;99.90;;;;;;5062293;28;19966;-69
2023/04/26 02:03:30;;;;;;;;;;;4.10;99.90;;;;;;5066856;28;19986;-70
2023/04/26 02:05:59;;;;;;;;;;;4.10;99.90;;;;;;5064583;28;19928;-71
2023/04/26 02:08:25;;;;;;;;;;;4.10;99.90;;;;;;5050642;28;19924;-69
2023/04/26 02:10:50;;;;;;;;;;;4.50;99.90;;;;;;5053718;28;19925;-69
2023/04/26 02:13:16;;;;;;;;;;;4.10;99.90;;;;;;5070331;28;19925;-69
2023/04/26 02:15:48;;;;;;;;;;;4.10;99.90;;;;;;5069858;28;19931;-70
2023/04/26 02:18:14;;;;;;;;;;;4.10;99.90;;;;;;5051420;28;19924;-69
2023/04/26 02:20:44;;;;;;;;;;;4.10;99.90;;;;;;5050679;28;19931;-69
2023/04/26 02:23:10;;;;;;;;;;;4.00;99.90;;;;;;5068837;28;20019;-69
2023/04/26 02:25:36;;;;;;;;;;;4.00;99.90;;;;;;5029296;28;19960;-70
2023/04/26 02:28:02;;;;;;;;;;;4.00;99.90;;;;;;5063423;28;19963;-70
2023/04/26 02:30:27;;;;;;;;;;;4.00;99.90;;;;;;5065884;28;20392;-69
2023/04/26 02:32:53;;;;;;;;;;;4.00;99.90;;;;;;5053375;28;19924;-69
2023/04/26 02:35:19;;;;;;;;;;;4.00;99.90;;;;;;5050833;28;20034;-69
2023/04/26 02:37:47;;;;;;;;;;;3.90;99.90;;;;;;5069502;28;20404;-69
2023/04/26 02:40:13;;;;;;;;;;;4.30;99.90;;;;;;5071336;28;19932;-69
2023/04/26 02:42:39;;;;;;;;;;;3.90;99.90;;;;;;5066471;28;19929;-69
2023/04/26 02:45:05;;;;;;;;;;;3.90;99.90;;;;;;5050933;28;20352;-69
2023/04/26 02:47:32;;;;;;;;;;;3.90;99.90;;;;;;5053909;28;19924;-68
2023/04/26 02:49:58;;;;;;;;;;;4.10;99.90;;;;;;5070952;28;20187;-69
2023/04/26 02:52:23;;;;;;;;;;;3.90;99.90;;;;;;5070323;28;19924;-69
2023/04/26 02:54:49;;;;;;;;;;;3.80;99.90;;;;;;5054313;28;20425;-69
2023/04/26 02:57:15;;;;;;;;;;;3.80;99.90;;;;;;5071889;28;19924;-70
2023/04/26 02:59:40;;;;;;;;;;;3.90;99.90;;;;;;5068952;28;19999;-70
2023/04/26 03:02:06;;;;;;;;;;;3.80;99.90;;;;;;5070635;28;19925;-69
2023/04/26 03:04:33;;;;;;;;;;;3.80;99.90;;;;;;5051542;28;19948;-70
2023/04/26 03:06:59;;;;;;;;;;;3.80;99.90;;;;;;5053236;28;20125;-69
2023/04/26 03:09:24;;;;;;;;;;;3.80;99.90;;;;;;5071168;28;20015;-69
2023/04/26 03:11:51;;;;;;;;;;;3.80;99.90;;;;;;5068845;28;19929;-69
2023/04/26 03:14:16;;;;;;;;;;;3.90;99.90;;;;;;5060126;28;19924;-69
2023/04/26 03:16:43;;;;;;;;;;;4.00;99.90;;;;;;5070680;28;19970;-68
2023/04/26 03:19:08;;;;;;;;;;;4.00;99.90;;;;;;5063362;28;19978;-69
2023/04/26 03:21:34;;;;;;;;;;;4.10;99.90;;;;;;5071524;28;19925;-71
2023/04/26 03:24:00;;;;;;;;;;;4.10;99.90;;;;;;5072790;28;19925;-69
2023/04/26 03:26:26;;;;;;;;;;;4.20;99.90;;;;;;5070707;28;19924;-69
2023/04/26 03:28:51;;;;;;;;;;;4.20;99.90;;;;;;5069862;28;20314;-69
2023/04/26 03:31:18;;;;;;;;;;;4.20;99.90;;;;;;5070815;28;19972;-69
2023/04/26 03:33:43;;;;;;;;;;;4.20;99.90;;;;;;5067784;28;20030;-69
2023/04/26 03:36:09;;;;;;;;;;;4.20;99.90;;;;;;5067605;28;20488;-68
2023/04/26 03:38:34;;;;;;;;;;;4.10;99.90;;;;;;5062339;28;19932;-69
2023/04/26 03:41:00;;;;;;;;;;;4.10;99.90;;;;;;5071356;28;19925;-70
2023/04/26 03:43:25;;;;;;;;;;;4.20;99.90;;;;;;5073713;28;20286;-68
2023/04/26 03:45:51;;;;;;;;;;;4.10;99.90;;;;;;5073646;28;19929;-69
2023/04/26 03:48:17;;;;;;;;;;;4.10;99.90;;;;;;5073357;28;20271;-69
2023/04/26 03:50:45;;;;;;;;;;;4.10;99.90;;;;;;5074619;28;19928;-69
2023/04/26 03:53:11;;;;;;;;;;;4.10;99.90;;;;;;5071750;28;19940;-69
2023/04/26 03:55:36;;;;;;;;;;;4.00;99.90;;;;;;5065999;28;19954;-70
2023/04/26 03:58:06;;;;;;;;;;;4.00;99.90;;;;;;5068301;28;20255;-69
2023/04/26 04:00:33;;;;;;;;;;;4.00;99.90;;;;;;5072342;28;19936;-69
2023/04/26 04:02:59;;;;;;;;;;;3.90;99.90;;;;;;5058050;28;19925;-69
2023/04/26 04:05:25;;;;;;;;;;;4.00;99.90;;;;;;5056536;28;19928;-70
2023/04/26 04:07:51;;;;;;;;;;;4.10;99.90;;;;;;5057002;28;19928;-70
2023/04/26 04:10:17;;;;;;;;;;;4.40;99.90;;;;;;5068045;28;20382;-70
2023/04/26 04:12:42;;;;;;;;;;;4.00;99.90;;;;;;5057424;28;19929;-71
2023/04/26 04:15:08;;;;;;;;;;;3.90;99.90;;;;;;5075073;28;19925;-72
2023/04/26 04:17:34;;;;;;;;;;;3.90;99.90;;;;;;5038560;28;19935;-71
2023/04/26 04:20:00;;;;;;;;;;;3.90;99.90;;;;;;5072141;28;19928;-70
2023/04/26 04:22:26;;;;;;;;;;;3.80;99.90;;;;;;5073973;28;19997;-70
2023/04/26 04:24:53;;;;;;;;;;;3.80;99.90;;;;;;5056494;28;20413;-69
2023/04/26 04:27:20;;;;;;;;;;;3.80;99.90;;;;;;5074587;28;19925;-74
2023/04/26 04:29:45;;;;;;;;;;;4.00;99.90;;;;;;5071281;28;19924;-70
2023/04/26 04:32:13;;;;;;;;;;;3.80;99.90;;;;;;5073489;28;19931;-70
2023/04/26 04:34:40;;;;;;;;;;;3.80;99.90;;;;;;5038939;28;19928;-70
2023/04/26 04:37:06;;;;;;;;;;;3.90;99.90;;;;;;5074286;28;19932;-70
2023/04/26 04:39:32;;;;;;;;;;;3.80;99.90;;;;;;5072144;28;19931;-72
2023/04/26 04:41:59;;;;;;;;;;;3.90;99.90;;;;;;5072641;28;20261;-71
2023/04/26 04:44:25;;;;;;;;;;;3.90;99.90;;;;;;5071140;28;19963;-71
2023/04/26 04:46:52;;;;;;;;;;;4.00;99.90;;;;;;5073626;28;20314;-71
2023/04/26 04:49:17;;;;;;;;;;;4.00;99.90;;;;;;5052942;28;19931;-69
2023/04/26 04:51:43;;;;;;;;;;;4.10;99.90;;;;;;5071656;28;19928;-70
2023/04/26 04:54:12;;;;;;;;;;;4.10;99.90;;;;;;5070110;28;19959;-71
2023/04/26 04:56:38;;;;;;;;;;;4.10;99.90;;;;;;5069634;28;20439;-69
2023/04/26 04:59:04;;;;;;;;;;;4.10;99.90;;;;;;5070817;28;19954;-70
2023/04/26 05:01:33;;;;;;;;;;;4.20;99.90;;;;;;5051532;28;19944;-70
2023/04/26 05:03:59;;;;;;;;;;;4.20;99.90;;;;;;5072526;28;19928;-70
2023/04/26 05:06:28;;;;;;;;;;;4.20;99.90;;;;;;5069834;28;19924;-70
2023/04/26 05:08:55;;;;;;;;;;;4.20;99.90;;;;;;5070156;28;19936;-70
2023/04/26 05:11:21;;;;;;;;;;;4.30;99.90;;;;;;5068473;28;19935;-70
2023/04/26 05:13:47;;;;;;;;;;;4.30;99.90;;;;;;5072714;28;19924;-70
2023/04/26 05:16:12;;;;;;;;;;;4.40;99.90;;;;;;5066906;28;20408;-70
2023/04/26 05:18:38;;;;;;;;;;;4.40;99.90;;;;;;5068601;28;19968;-70
2023/04/26 05:21:04;;;;;;;;;;;4.50;99.90;;;;;;5067821;28;20011;-70
2023/04/26 05:23:30;;;;;;;;;;;4.30;99.90;;;;;;5050937;28;19925;-69
2023/04/26 05:26:00;;;;;;;;;;;4.40;99.90;;;;;;5070402;28;19924;-70
2023/04/26 05:28:25;;;;;;;;;;;4.30;99.90;;;;;;5053079;28;20360;-70
2023/04/26 05:30:51;;;;;;;;;;;4.30;99.90;;;;;;5055159;28;20015;-70
2023/04/26 05:33:16;;;;;;;;;;;4.30;99.90;;;;;;5072466;28;20015;-70
2023/04/26 05:35:42;;;;;;;;;;;4.50;99.90;;;;;;5069551;28;20412;-70
2023/04/26 05:38:07;;;;;;;;;;;4.40;99.90;;;;;;5070548;28;19925;-70
2023/04/26 05:40:33;;;;;;;;;;;4.80;99.90;;;;;;5072603;28;19924;-70
2023/04/26 05:42:59;;;;;;;;;;;5.30;99.90;;;;;;5071663;28;19947;-68
2023/04/26 05:45:24;;;;;;;;;;;5.80;99.90;;;;;;5070074;28;19981;-69
2023/04/26 05:47:50;;;;;;;;;;;6.20;99.90;;;;;;5061226;28;19928;-70
2023/04/26 05:50:16;;;;;;;;;;;6.40;99.90;;;;;;5044013;28;20386;-68
2023/04/26 05:52:41;;;;;;;;;;;6.30;99.90;;;;;;5068910;28;19932;-69
2023/04/26 05:55:07;;;;;;;;;;;6.40;99.90;;;;;;5069955;28;20475;-69
2023/04/26 05:57:33;;;;;;;;;;;6.30;99.90;;;;;;5070617;28;19975;-69
2023/04/26 05:59:59;;;;;;;;;;;6.30;99.90;;;;;;5050641;28;19976;-69
2023/04/26 06:02:25;;;;;;;;;;;6.20;99.90;;;;;;5052590;28;19928;-69
2023/04/26 06:04:50;;;;;;;;;;;6.00;99.90;;;;;;5068104;28;19932;-69
2023/04/26 06:07:16;;;;;;;;;;;6.10;99.90;;;;;;5072821;28;19931;-69
2023/04/26 06:09:44;;;;;;;;;;;5.80;99.90;;;;;;5067828;28;20275;-69
2023/04/26 06:12:10;;;;;;;;;;;5.80;99.90;;;;;;5053135;28;19950;-67
2023/04/26 06:14:36;;;;;;;;;;;5.80;99.90;;;;;;5068027;28;19971;-68
2023/04/26 06:17:02;;;;;;;;;;;5.70;99.90;;;;;;5071622;28;19964;-68
2023/04/26 06:19:27;;;;;;;;;;;5.80;99.90;;;;;;5064267;28;19937;-69
2023/04/26 06:21:54;;;;;;;;;;;5.80;99.90;;;;;;5064486;28;19924;-68
2023/04/26 06:24:20;;;;;;;;;;;6.20;99.90;;;;;;5067242;28;19931;-69
2023/04/26 06:26:48;;;;;;;;;;;6.80;99.90;;;;;;5063636;28;20007;-69
2023/04/26 06:29:13;;;;;;;;;;;7.50;99.90;;;;;;5068747;28;19948;-70
2023/04/26 06:31:39;;;;;;;;;;;8.10;99.90;;;;;;5070517;28;20084;-70
2023/04/26 06:34:04;;;;;;;;;;;8.40;99.90;;;;;;5069186;28;19934;-70
2023/04/26 06:36:31;;;;;;;;;;;8.40;99.90;;;;;;5069963;28;20321;-69
2023/04/26 06:38:57;;;;;;;;;;;8.20;99.90;;;;;;5066756;28;20370;-69
2023/04/26 06:41:22;;;;;;;;;;;8.10;99.90;;;;;;5070334;28;20011;-68
2023/04/26 06:43:48;;;;;;;;;;;8.10;99.90;;;;;;5069201;28;19984;-68
2023/04/26 06:46:14;;;;;;;;;;;8.00;99.90;;;;;;5037348;28;19925;-69
2023/04/26 06:48:39;;;;;;;;;;;7.90;99.90;;;;;;5064108;28;19964;-68
2023/04/26 06:51:05;;;;;;;;;;;7.80;99.90;;;;;;5071960;28;19931;-68
2023/04/26 06:53:31;;;;;;;;;;;7.70;99.90;;;;;;5065451;28;19928;-69
2023/04/26 06:55:57;;;;;;;;;;;7.50;99.90;;;;;;5065655;28;20050;-69
2023/04/26 06:58:22;;;;;;;;;;;7.70;99.90;;;;;;5069951;28;19932;-70
2023/04/26 07:00:48;;;;;;;;;;;8.00;99.90;;;;;;5068952;28;20285;-67
2023/04/26 07:03:13;;;;;;;;;;;8.10;99.90;;;;;;5069938;28;19932;-68
2023/04/26 07:05:40;;;;;;;;;;;8.00;99.90;;;;;;5071198;28;19970;-71
2023/04/26 07:08:05;;;;;;;;;;;7.80;99.90;;;;;;5051983;28;20393;-70
2023/04/26 07:10:31;;;;;;;;;;;7.50;99.90;;;;;;5070074;28;19925;-69
2023/04/26 07:12:57;;;;;;;;;;;7.30;99.90;;;;;;5071111;28;20333;-69
2023/04/26 07:15:22;;;;;;;;;;;7.10;99.90;;;;;;5070174;28;19928;-69
2023/04/26 07:17:48;;;;;;;;;;;7.00;99.90;;;;;;5069944;28;19929;-68
2023/04/26 07:20:18;;;;;;;;;;;7.00;99.90;;;;;;5068449;28;20389;-70
2023/04/26 07:22:44;;;;;;;;;;;6.90;99.90;;;;;;5069866;28;20003;-69
2023/04/26 07:25:09;;;;;;;;;;;6.80;99.90;;;;;;5072115;28;20328;-69
2023/04/26 07:27:38;;;;;;;;;;;7.00;99.90;;;;;;5062024;28;19935;-69
2023/04/26 07:30:04;;;;;;;;;;;7.30;99.90;;;;;;5071428;28;19978;-69
2023/04/26 07:32:30;;;;;;;;;;;7.70;99.90;;;;;;5051984;28;19924;-69
2023/04/26 07:34:56;;;;;;;;;;;8.00;99.90;;;;;;5070656;28;20007;-69
2023/04/26 07:37:21;;;;;;;;;;;8.10;99.90;;;;;;5071670;28;19978;-69
2023/04/26 07:39:47;;;;;;;;;;;8.20;99.90;;;;;;5050801;28;19932;-69
2023/04/26 07:42:14;;;;;;;;;;;8.40;99.90;;;;;;5051153;28;19928;-70
2023/04/26 07:44:40;;;;;;;;;;;8.70;99.90;;;;;;5065764;28;19924;-70
2023/04/26 07:47:14;;;;;;;;;;;8.80;99.90;;;;;;5069973;28;19924;-70
2023/04/26 07:49:40;;;;;;;;;;;8.90;99.90;;;;;;5051854;28;19931;-69
2023/04/26 07:52:07;;;;;;;;;;;8.90;99.90;;;;;;5067940;28;19924;-68
2023/04/26 07:54:32;;;;;;;;;;;9.00;99.90;;;;;;5065193;28;19947;-68
2023/04/26 07:56:58;;;;;;;;;;;9.10;99.90;;;;;;5073724;28;19932;-68
2023/04/26 07:59:23;;;;;;;;;;;9.20;99.90;;;;;;5070046;28;19924;-68
2023/04/26 08:01:49;;;;;;;;;;;9.30;99.90;;;;;;5067566;28;19974;-68
2023/04/26 08:04:15;;;;;;;;;;;9.40;99.90;;;;;;5071538;28;19975;-69
2023/04/26 08:06:47;;;;;;;;;;;9.50;99.90;;;;;;5049709;28;20232;-69
2023/04/26 08:09:12;;;;;;;;;;;9.60;99.90;;;;;;5065517;28;19924;-69
2023/04/26 08:11:39;;;;;;;;;;;9.60;99.90;;;;;;5044169;28;19924;-69
2023/04/26 08:14:05;;;;;;;;;;;9.60;99.90;;;;;;5042710;28;19928;-69
2023/04/26 08:16:31;;;;;;;;;;;9.50;99.90;;;;;;5060946;28;19951;-71
2023/04/26 08:19:01;;;;;;;;;;;9.30;99.90;;;;;;5057070;28;20405;-68
2023/04/26 08:21:27;;;;;;;;;;;9.10;99.90;;;;;;5070579;28;20202;-68
2023/04/26 08:23:52;;;;;;;;;;;8.80;99.90;;;;;;5044961;28;19928;-70
2023/04/26 08:26:18;;;;;;;;;;;8.60;99.90;;;;;;5041810;28;20031;-68
2023/04/26 08:28:43;;;;;;;;;;;8.50;99.90;;;;;;5070075;28;19925;-70
2023/04/26 08:31:09;;;;;;;;;;;8.50;99.90;;;;;;5056299;28;19931;-68
2023/04/26 08:33:34;;;;;;;;;;;8.50;99.90;;;;;;5053962;28;19947;-68
2023/04/26 08:36:00;;;;;;;;;;;8.30;99.90;;;;;;5067646;28;19932;-68
2023/04/26 08:38:26;;;;;;;;;;;8.30;99.90;;;;;;5072947;28;19924;-69
2023/04/26 08:40:52;;;;;;;;;;;8.40;99.90;;;;;;5082942;28;19932;-69
2023/04/26 08:43:18;;;;;;;;;;;8.50;99.90;;;;;;5064481;28;20386;-68
2023/04/26 08:45:47;;;;;;;;;;;8.70;99.90;;;;;;5069541;28;19998;-68
2023/04/26 08:48:16;;;;;;;;;;;9.10;99.90;;;;;;5073217;28;19924;-69
2023/04/26 08:50:46;;;;;;;;;;;9.40;99.90;;;;;;5039363;28;19924;-68
2023/04/26 08:53:17;;;;;;;;;;;9.50;99.90;;;;;;5074430;28;20017;-69
2023/04/26 08:55:47;;;;;;;;;;;9.50;99.90;;;;;;5071205;28;19925;-69
2023/04/26 08:58:13;;;;;;;;;;;9.30;99.90;;;;;;5059602;28;20012;-69
2023/04/26 09:00:38;;;;;;;;;;;9.10;99.90;;;;;;5047352;28;20429;-68
2023/04/26 09:03:04;;;;;;;;;;;9.00;99.90;;;;;;5071395;28;19947;-69
2023/04/26 09:05:29;;;;;;;;;;;8.90;99.90;;;;;;5073043;28;19925;-70
2023/04/26 09:07:56;;;;;;;;;;;9.00;99.90;;;;;;5069237;28;19946;-69
2023/04/26 09:10:22;;;;;;;;;;;9.00;99.90;;;;;;5063372;28;19979;-68
2023/04/26 09:12:53;;;;;;;;;;;9.10;99.90;;;;;;5056520;28;19929;-68
2023/04/26 09:15:20;;;;;;;;;;;9.10;99.90;;;;;;5064816;28;19978;-68
2023/04/26 09:17:48;;;;;;;;;;;9.00;99.90;;;;;;5070646;28;19962;-68
2023/04/26 09:20:21;;;;;;;;;;;9.00;99.90;;;;;;5074604;28;20397;-72
2023/04/26 09:22:47;;;;;;;;;;;8.80;99.90;;;;;;5074454;28;19921;-68
2023/04/26 09:25:14;;;;;;;;;;;8.80;99.90;;;;;;5074718;28;19925;-68
2023/04/26 09:27:44;;;;;;;;;;;8.70;99.90;;;;;;5074083;28;19930;-68
2023/04/26 09:30:10;;;;;;;;;;;8.50;99.90;;;;;;5055886;28;20011;-68
2023/04/26 09:32:41;;;;;;;;;;;8.40;99.90;;;;;;5069822;28;20462;-68
2023/04/26 09:35:07;;;;;;;;;;;8.30;99.90;;;;;;5072960;28;20015;-68
2023/04/26 09:37:33;;;;;;;;;;;8.40;99.90;;;;;;5070808;28;20015;-68
2023/04/26 09:39:58;;;;;;;;;;;8.50;99.90;;;;;;5054003;28;19925;-68
2023/04/26 09:42:24;;;;;;;;;;;8.50;99.90;;;;;;5072312;28;20338;-68
2023/04/26 09:44:50;;;;;;;;;;;8.90;99.90;;;;;;5065334;28;19974;-68
2023/04/26 09:47:16;;;;;;;;;;;8.70;99.90;;;;;;5065730;28;19946;-69
2023/04/26 09:49:49;;;;;;;;;;;8.80;99.90;;;;;;5037827;28;20023;-68
2023/04/26 09:52:15;;;;;;;;;;;8.80;99.90;;;;;;5063590;28;19925;-68
2023/04/26 09:54:43;;;;;;;;;;;9.00;99.90;;;;;;5042146;28;19935;-69
2023/04/26 09:57:09;;;;;;;;;;;9.10;99.90;;;;;;5073185;28;19924;-69
2023/04/26 09:59:38;;;;;;;;;;;9.40;99.90;;;;;;5072625;28;20642;-68
2023/04/26 10:02:03;;;;;;;;;;;9.80;99.90;;;;;;5070218;28;19931;-68
2023/04/26 10:04:30;;;;;;;;;;;10.20;99.90;;;;;;5072444;28;19950;-69
2023/04/26 10:06:56;;;;;;;;;;;10.40;99.90;;;;;;5063628;28;19924;-68
2023/04/26 10:09:22;;;;;;;;;;;10.40;99.90;;;;;;5035428;28;19932;-68
2023/04/26 10:11:47;;;;;;;;;;;10.50;99.90;;;;;;5068562;28;19925;-69
2023/04/26 10:14:13;;;;;;;;;;;10.30;99.90;;;;;;5065790;28;19983;-72
2023/04/26 10:16:39;;;;;;;;;;;10.30;99.90;;;;;;5051747;28;19950;-68
2023/04/26 10:19:06;;;;;;;;;;;10.40;99.90;;;;;;5062533;28;20393;-69
2023/04/26 10:21:35;;;;;;;;;;;10.30;99.90;;;;;;5070372;28;19924;-68
2023/04/26 10:24:01;;;;;;;;;;;10.10;99.90;;;;;;5066238;28;19921;-69
2023/04/26 10:26:50;;;;;;;;;;;10.00;99.90;;;;;;5069324;28;20574;-68
2023/04/26 10:29:16;;;;;;;;;;;10.00;99.90;;;;;;5070066;28;19924;-69
2023/04/26 10:32:03;;;;;;;;;;;9.90;99.90;;;;;;5070102;28;19932;-69
2023/04/26 10:34:32;;;;;;;;;;;10.10;99.90;;;;;;5055892;28;19933;-69
2023/04/26 10:37:13;;;;;;;;;;;10.60;99.90;;;;;;5064778;28;19929;-68
2023/04/26 10:39:40;;;;;;;;;;;11.00;99.90;;;;;;5067490;28;19925;-68
2023/04/26 10:42:21;;;;;;;;;;;11.00;99.90;;;;;;5066991;28;19928;-70
2023/04/26 10:44:48;;;;;;;;;;;10.90;99.90;;;;;;5065754;28;19932;-69
2023/04/26 10:47:23;;;;;;;;;;;10.80;99.90;;;;;;5066669;28;19932;-69
2023/04/26 10:49:49;;;;;;;;;;;10.10;99.90;;;;;;5064761;28;20298;-69
2023/04/26 10:52:19;;;;;;;;;;;9.70;99.90;;;;;;5067757;28;19969;-69
2023/04/26 10:54:46;;;;;;;;;;;9.60;99.90;;;;;;5063036;28;20508;-69
2023/04/26 10:57:11;;;;;;;;;;;9.40;99.90;;;;;;5028622;28;19932;-70
2023/04/26 10:59:37;;;;;;;;;;;9.30;99.90;;;;;;5069277;28;19935;-68
2023/04/26 11:02:08;;;;;;;;;;;9.10;99.90;;;;;;5067896;28;19931;-69
2023/04/26 11:04:52;;;;;;;;;;;9.20;99.90;;;;;;5065218;28;19932;-70
2023/04/26 11:07:35;;;;;;;;;;;9.20;99.90;;;;;;5060652;28;20404;-68
2023/04/26 11:10:00;;;;;;;;;;;9.30;99.90;;;;;;5063227;28;19924;-68
2023/04/26 11:12:26;;;;;;;;;;;9.20;99.90;;;;;;5068137;28;19925;-68
2023/04/26 11:14:52;;;;;;;;;;;9.30;99.90;;;;;;5068587;28;20029;-67
2023/04/26 11:17:18;;;;;;;;;;;9.40;99.90;;;;;;5066953;28;19979;-67
2023/04/26 11:19:45;;;;;;;;;;;9.50;99.90;;;;;;5045870;28;19942;-68
2023/04/26 11:22:11;;;;;;;;;;;9.70;99.90;;;;;;5053478;28;19924;-67
2023/04/26 11:24:37;;;;;;;;;;;9.80;99.90;;;;;;5051757;28;20405;-68
2023/04/26 11:27:10;;;;;;;;;;;9.80;99.90;;;;;;5063010;28;20298;-68
2023/04/26 11:29:36;;;;;;;;;;;9.90;99.90;;;;;;5063325;28;19925;-67
2023/04/26 11:32:02;;;;;;;;;;;10.00;99.90;;;;;;5061610;28;20077;-68
2023/04/26 11:34:32;;;;;;;;;;;10.20;99.90;;;;;;5063092;28;19969;-67
2023/04/26 11:36:58;;;;;;;;;;;10.60;99.90;;;;;;5064253;28;20293;-68
2023/04/26 11:39:25;;;;;;;;;;;11.10;99.90;;;;;;5046936;28;19978;-69
2023/04/26 11:41:50;;;;;;;;;;;11.50;99.90;;;;;;5066678;28;19934;-69
2023/04/26 11:44:19;;;;;;;;;;;11.80;99.90;;;;;;5071221;28;19925;-69
2023/04/26 11:46:47;;;;;;;;;;;12.30;99.70;;;;;;5066006;28;19934;-70
2023/04/26 11:49:12;;;;;;;;;;;12.70;98.50;;;;;;5067613;28;19989;-69
2023/04/26 11:51:38;;;;;;;;;;;12.80;99.90;;;;;;5070288;28;19928;-69
2023/04/26 11:54:04;;;;;;;;;;;12.90;99.60;;;;;;5027143;28;19932;-69
2023/04/26 11:56:29;;;;;;;;;;;12.80;98.00;;;;;;5040421;28;20456;-69
2023/04/26 11:58:57;;;;;;;;;;;12.70;97.50;;;;;;5068595;28;19925;-69
2023/04/26 12:01:23;;;;;;;;;;;12.60;98.90;;;;;;5070931;28;19931;-70
2023/04/26 12:03:50;;;;;;;;;;;12.80;98.20;;;;;;5071951;28;20332;-68
2023/04/26 12:06:17;;;;;;;;;;;12.90;98.00;;;;;;5074459;28;20015;-71
2023/04/26 12:08:48;;;;;;;;;;;13.10;97.50;;;;;;5072811;28;19924;-69
2023/04/26 12:11:15;;;;;;;;;;;13.40;96.90;;;;;;5052637;28;19925;-69
2023/04/26 12:13:41;;;;;;;;;;;13.50;94.60;;;;;;5071182;28;20008;-69
2023/04/26 12:16:08;;;;;;;;;;;13.50;95.20;;;;;;5073351;28;19932;-69
2023/04/26 12:18:33;;;;;;;;;;;13.50;94.70;;;;;;5055181;28;19932;-69
2023/04/26 12:21:02;;;;;;;;;;;13.30;96.30;;;;;;5070280;28;19932;-69
2023/04/26 12:23:35;;;;;;;;;;;13.10;98.90;;;;;;5072268;28;20396;-69
2023/04/26 12:26:02;;;;;;;;;;;13.30;97.90;;;;;;5055344;28;19925;-68
2023/04/26 12:28:28;;;;;;;;;;;13.00;97.00;;;;;;5070297;28;20039;-69
2023/04/26 12:30:54;;;;;;;;;;;12.60;98.30;;;;;;5062003;28;20039;-69
2023/04/26 12:33:21;;;;;;;;;;;12.50;98.40;;;;;;5068772;28;19967;-70
2023/04/26 12:35:50;;;;;;;;;;;12.40;98.70;;;;;;5071592;28;20191;-70
2023/04/26 12:38:16;;;;;;;;;;;12.30;98.10;;;;;;5055339;28;19924;-70
2023/04/26 12:40:42;;;;;;;;;;;11.50;99.20;;;;;;5073762;28;19932;-70
2023/04/26 12:43:07;;;;;;;;;;;11.40;98.90;;;;;;5076109;28;19990;-69
2023/04/26 12:45:33;;;;;;;;;;;11.00;99.90;;;;;;5074538;28;19924;-70
2023/04/26 12:47:59;;;;;;;;;;;11.00;99.90;;;;;;5073446;28;20298;-71
2023/04/26 12:50:25;;;;;;;;;;;10.80;99.90;;;;;;5049502;28;19933;-70
2023/04/26 12:52:50;;;;;;;;;;;10.70;99.90;;;;;;5072898;28;19940;-70
2023/04/26 12:55:16;;;;;;;;;;;10.80;99.40;;;;;;5043772;28;19925;-69
2023/04/26 12:57:42;;;;;;;;;;;10.60;99.70;;;;;;5046072;28;19939;-69
2023/04/26 13:00:10;;;;;;;;;;;10.70;98.80;;;;;;5067977;28;20563;-69
2023/04/26 13:02:36;;;;;;;;;;;10.70;99.30;;;;;;5066563;28;19924;-69
2023/04/26 13:05:03;;;;;;;;;;;10.70;99.10;;;;;;5070537;28;20356;-69
2023/04/26 13:07:30;;;;;;;;;;;10.80;99.30;;;;;;5071053;28;19931;-69
2023/04/26 13:09:56;;;;;;;;;;;11.00;98.40;;;;;;5056236;28;19985;-69
2023/04/26 13:12:22;;;;;;;;;;;11.10;97.90;;;;;;5073089;28;19970;-68
2023/04/26 13:14:48;;;;;;;;;;;11.20;97.40;;;;;;5073318;28;19924;-69
2023/04/26 13:17:14;;;;;;;;;;;11.30;97.90;;;;;;5056644;28;19993;-70
2023/04/26 13:19:39;;;;;;;;;;;11.60;98.30;;;;;;5073195;28;19976;-69
2023/04/26 13:22:07;;;;;;;;;;;12.00;98.90;;;;;;5073190;28;20443;-69
2023/04/26 13:24:33;;;;;;;;;;;12.30;96.60;;;;;;5074127;28;19982;-69
2023/04/26 13:26:59;;;;;;;;;;;12.50;95.70;;;;;;5071069;28;20401;-70
2023/04/26 13:29:25;;;;;;;;;;;12.50;95.90;;;;;;5073455;28;19925;-69
2023/04/26 13:31:50;;;;;;;;;;;12.70;96.00;;;;;;5073316;28;20298;-70
2023/04/26 13:34:16;;;;;;;;;;;12.50;95.80;;;;;;5074189;28;19932;-70
2023/04/26 13:36:41;;;;;;;;;;;12.40;96.60;;;;;;5063668;28;19925;-69
2023/04/26 13:39:07;;;;;;;;;;;12.30;95.50;;;;;;5053686;28;19935;-70
2023/04/26 13:41:33;;;;;;;;;;;12.10;95.70;;;;;;5060665;28;20279;-69
2023/04/26 13:44:00;;;;;;;;;;;11.90;94.80;;;;;;5049978;28;19993;-70
2023/04/26 13:46:25;;;;;;;;;;;11.80;94.60;;;;;;5073252;28;19971;-69
2023/04/26 13:48:51;;;;;;;;;;;11.80;93.60;;;;;;5073889;28;19932;-70
2023/04/26 13:51:17;;;;;;;;;;;11.70;94.20;;;;;;5053565;28;20338;-69
2023/04/26 13:53:42;;;;;;;;;;;11.60;94.30;;;;;;5072470;28;19967;-70
2023/04/26 13:56:08;;;;;;;;;;;11.50;93.80;;;;;;5061391;28;19924;-69
2023/04/26 13:58:34;;;;;;;;;;;11.50;94.00;;;;;;5039104;28;20340;-69
2023/04/26 14:01:01;;;;;;;;;;;11.30;94.40;;;;;;5054130;28;19946;-69
2023/04/26 14:03:26;;;;;;;;;;;11.30;94.30;;;;;;5065632;28;19925;-69
2023/04/26 14:05:51;;;;;;;;;;;11.30;94.30;;;;;;5059314;28;20013;-69
2023/04/26 14:08:17;;;;;;;;;;;11.00;95.00;;;;;;5073308;28;20328;-69
2023/04/26 14:10:43;;;;;;;;;;;10.80;96.40;;;;;;5072439;28;19924;-70
2023/04/26 14:13:08;;;;;;;;;;;10.70;96.30;;;;;;5071714;28;19925;-69
2023/04/26 14:15:34;;;;;;;;;;;10.50;96.50;;;;;;5053669;28;19925;-69
2023/04/26 14:17:59;;;;;;;;;;;10.40;96.50;;;;;;5055623;28;20057;-69
2023/04/26 14:20:25;;;;;;;;;;;10.30;96.80;;;;;;5053446;28;20019;-70
2023/04/26 14:22:50;;;;;;;;;;;10.20;97.20;;;;;;5067478;28;19924;-69